Time;durP1;ratioP1;P1;durP2;ratioP2;P2;SDS_P1;SDS_P2;PMS_P1;PMS_P2;Temp;Humidity;BMP_temperature;BMP_pressure;BME280_temperature;BME280_humidity;BME280_pressure;Samples;Min_cycle;Max_cycle;Signal;HPM_P1;HPM_P2
2023/01/22 00:05:53;;;;;;;96.20;47.10;;;;;;;-0.35;100.00;99593.33;268652;1262;22616;-91
2023/01/22 00:11:54;;;;;;;99.20;47.80;;;;;;;-0.36;100.00;99593.50;267839;1272;22561;-93
2023/01/22 00:17:55;;;;;;;95.70;47.40;;;;;;;-0.38;100.00;99605.25;267833;1272;24268;-92
2023/01/22 00:23:57;;;;;;;98.00;46.90;;;;;;;-0.41;100.00;99605.81;267693;1271;22561;-92
2023/01/22 00:29:58;;;;;;;98.80;49.20;;;;;;;-0.42;100.00;99611.00;268007;1272;22542;-94
2023/01/22 00:36:07;;;;;;;104.00;49.50;;;;;;;-0.44;100.00;99610.48;267617;1271;22633;-91
2023/01/22 00:42:08;;;;;;;98.30;45.10;;;;;;;-0.44;100.00;99617.38;268179;1257;22547;-91
2023/01/22 00:48:11;;;;;;;100.90;47.70;;;;;;;-0.45;100.00;99617.01;268014;1272;22544;-92
2023/01/22 00:54:15;;;;;;;97.50;48.50;;;;;;;-0.47;100.00;99608.05;268379;1272;22570;-90
2023/01/22 01:00:19;;;;;;;89.50;45.70;;;;;;;-0.48;100.00;99599.79;267509;1272;22655;-91
2023/01/22 01:06:26;;;;;;;;;;;;;;;-0.48;100.00;99606.95;267540;1272;24066;-91
2023/01/22 01:12:30;;;;;;;106.10;47.90;;;;;;;-0.46;100.00;99611.48;267496;1272;22562;-91
2023/01/22 01:18:36;;;;;;;95.40;45.90;;;;;;;-0.47;100.00;99612.52;267545;1272;22557;-90
2023/01/22 01:24:39;;;;;;;93.90;46.30;;;;;;;-0.51;100.00;99613.91;267592;1272;22552;-91
2023/01/22 01:30:40;;;;;;;79.40;40.20;;;;;;;-0.53;100.00;99620.92;267729;1272;22557;-90
2023/01/22 01:36:41;;;;;;;82.60;39.00;;;;;;;-0.53;100.00;99634.54;267770;1272;23274;-90
2023/01/22 01:42:50;;;;;;;75.30;35.60;;;;;;;-0.55;100.00;99649.39;267481;1272;22545;-91
2023/01/22 01:48:54;;;;;;;84.00;37.30;;;;;;;-0.57;100.00;99658.25;267590;1272;24390;-92
2023/01/22 01:54:58;;;;;;;74.00;33.80;;;;;;;-0.58;100.00;99666.11;267732;1272;22545;-91
2023/01/22 02:01:09;;;;;;;75.00;35.60;;;;;;;-0.58;100.00;99664.02;267815;1272;22626;-92
2023/01/22 02:07:11;;;;;;;70.40;34.80;;;;;;;-0.60;100.00;99660.22;268201;1272;25528;-92
2023/01/22 02:13:18;;;;;;;75.70;34.40;;;;;;;-0.60;100.00;99661.24;267802;1272;22580;-91
2023/01/22 02:19:23;;;;;;;70.20;33.20;;;;;;;-0.61;100.00;99660.18;267878;1272;22580;-91
2023/01/22 02:25:28;;;;;;;64.30;31.30;;;;;;;-0.61;100.00;99660.02;267743;1272;22565;-91
2023/01/22 02:31:34;;;;;;;60.70;28.50;;;;;;;-0.63;100.00;99654.34;267820;1272;24240;-91
2023/01/22 02:37:35;;;;;;;61.40;30.10;;;;;;;-0.64;100.00;99650.26;268023;1272;24205;-91
2023/01/22 02:43:39;;;;;;;65.30;30.00;;;;;;;-0.64;100.00;99647.58;267541;1272;22558;-91
2023/01/22 02:49:45;;;;;;;65.00;30.50;;;;;;;-0.65;100.00;99650.16;267512;1272;22567;-92
2023/01/22 02:56:04;;;;;;;62.70;32.30;;;;;;;-0.67;100.00;99648.73;267709;1272;22725;-91
2023/01/22 03:02:10;;;;;;;64.50;30.60;;;;;;;-0.69;100.00;99655.15;267770;1272;22567;-90
2023/01/22 03:08:25;;;;;;;60.00;29.50;;;;;;;-0.69;100.00;99657.20;267584;1272;23282;-92
2023/01/22 03:21:21;;;;;;;55.30;26.60;;;;;;;-0.68;100.00;99667.58;267758;1272;22537;-91
2023/01/22 03:27:29;;;;;;;56.50;27.50;;;;;;;-0.68;100.00;99675.42;267507;1272;22611;-91
2023/01/22 03:33:32;;;;;;;55.20;27.70;;;;;;;-0.67;100.00;99675.14;267417;1272;22606;-90
2023/01/22 03:39:35;;;;;;;53.90;26.30;;;;;;;-0.68;100.00;99670.53;267413;1272;22584;-90
2023/01/22 03:45:40;;;;;;;50.50;24.80;;;;;;;-0.68;100.00;99667.42;267833;1262;22676;-92
2023/01/22 03:51:47;;;;;;;51.50;24.70;;;;;;;-0.70;100.00;99668.30;267597;1272;22523;-91
2023/01/22 03:57:50;;;;;;;47.70;23.10;;;;;;;-0.70;100.00;99668.66;267898;1272;27163;-91
2023/01/22 04:03:55;;;;;;;46.50;22.70;;;;;;;-0.70;100.00;99673.66;267803;1272;25425;-92
2023/01/22 04:10:00;;;;;;;43.30;20.40;;;;;;;-0.71;100.00;99672.27;267909;1272;22557;-90
2023/01/22 04:16:04;;;;;;;43.80;21.90;;;;;;;-0.71;100.00;99677.45;267694;1272;22583;-91
2023/01/22 04:22:27;;;;;;;43.60;21.90;;;;;;;-0.72;100.00;99679.06;267660;1273;22556;-90
2023/01/22 04:28:52;;;;;;;47.20;21.40;;;;;;;-0.74;100.00;99673.71;267899;1272;24270;-92
2023/01/22 04:34:59;;;;;;;39.30;20.00;;;;;;;-0.75;100.00;99673.52;268073;1272;22549;-91
2023/01/22 04:41:23;;;;;;;49.90;23.10;;;;;;;-0.76;100.00;99676.38;267901;1263;22557;-92
2023/01/22 04:47:28;;;;;;;43.50;21.00;;;;;;;-0.76;100.00;99673.80;268132;1272;22541;-92
2023/01/22 04:53:32;;;;;;;45.20;21.60;;;;;;;-0.77;100.00;99671.86;268219;1272;22551;-91
2023/01/22 04:59:35;;;;;;;42.30;20.00;;;;;;;-0.77;100.00;99673.15;268242;1272;22572;-91
2023/01/22 05:05:39;;;;;;;41.10;20.40;;;;;;;-0.77;100.00;99673.16;268196;1272;26112;-93
2023/01/22 05:11:43;;;;;;;36.60;18.90;;;;;;;-0.75;100.00;99678.23;267800;1271;22613;-91
2023/01/22 05:17:45;;;;;;;39.70;19.50;;;;;;;-0.75;100.00;99679.10;267792;1272;25453;-91
2023/01/22 05:30:40;;;;;;;44.80;19.80;;;;;;;-0.73;100.00;99687.91;264925;1305;545052;-89
2023/01/22 05:36:52;;;;;;;34.60;16.60;;;;;;;-0.73;100.00;99708.87;271135;1280;22482;-90
2023/01/22 05:42:56;;;;;;;38.80;19.50;;;;;;;-0.72;100.00;99729.39;268492;1279;102065;-90
2023/01/22 05:48:59;;;;;;;37.60;18.70;;;;;;;-0.72;100.00;99734.39;268176;1279;22662;-90
2023/01/22 05:55:05;;;;;;;28.60;13.50;;;;;;;-0.71;100.00;99734.06;268438;1279;22562;-90
2023/01/22 06:01:14;;;;;;;34.40;16.40;;;;;;;-0.72;100.00;99732.56;271141;1279;22450;-89
2023/01/22 06:07:20;;;;;;;28.20;12.60;;;;;;;-0.72;100.00;99729.55;270364;1278;22563;-88
2023/01/22 06:13:22;;;;;;;36.30;16.60;;;;;;;-0.73;100.00;99724.52;268566;1279;25430;-89
2023/01/22 06:19:30;;;;;;;29.70;15.80;;;;;;;-0.73;100.00;99725.38;270242;1279;22256;-89
2023/01/22 06:25:33;;;;;;;34.40;17.10;;;;;;;-0.73;100.00;99726.23;271864;1279;22392;-89
2023/01/22 06:31:43;;;;;;;33.70;16.30;;;;;;;-0.73;100.00;99732.52;269865;1279;22431;-88
2023/01/22 06:37:47;;;;;;;36.00;15.30;;;;;;;-0.73;100.00;99744.24;270546;1279;23235;-88
2023/01/22 06:43:49;;;;;;;30.60;16.00;;;;;;;-0.72;100.00;99740.73;273157;1267;24202;-88
2023/01/22 06:49:51;;;;;;;37.20;17.40;;;;;;;-0.70;100.00;99742.86;272620;1267;23146;-89
2023/01/22 06:55:53;;;;;;;35.10;16.80;;;;;;;-0.69;100.00;99740.81;273903;1266;22373;-90
2023/01/22 07:01:55;;;;;;;37.80;16.50;;;;;;;-0.67;100.00;99743.27;273807;1266;22445;-90
2023/01/22 07:07:56;;;;;;;32.10;16.10;;;;;;;-0.64;100.00;99761.48;273269;1266;23162;-88
2023/01/22 07:13:58;;;;;;;35.50;16.50;;;;;;;-0.62;100.00;99778.67;273897;1266;22434;-89
2023/01/22 07:20:00;;;;;;;35.90;17.80;;;;;;;-0.60;100.00;99786.76;273936;1266;23207;-90
2023/01/22 07:26:01;;;;;;;34.50;16.40;;;;;;;-0.58;100.00;99789.02;272747;1266;22767;-88
2023/01/22 07:32:04;;;;;;;32.00;14.70;;;;;;;-0.58;100.00;99788.04;272348;1266;22776;-90
2023/01/22 07:38:06;;;;;;;28.30;14.00;;;;;;;-0.57;100.00;99795.29;272120;1266;22263;-89
2023/01/22 07:44:09;;;;;;;31.70;16.20;;;;;;;-0.55;100.00;99801.35;273498;1266;22387;-89
2023/01/22 07:50:11;;;;;;;34.90;16.60;;;;;;;-0.52;100.00;99799.61;272905;1266;22368;-88
2023/01/22 07:56:13;;;;;;;28.80;15.30;;;;;;;-0.50;100.00;99795.94;273752;1266;22430;-90
2023/01/22 08:02:14;;;;;;;27.40;14.50;;;;;;;-0.48;100.00;99804.78;272340;1254;23853;-89
2023/01/22 08:08:19;;;;;;;25.90;15.00;;;;;;;-0.46;100.00;99806.65;271838;1264;22532;-92
2023/01/22 08:14:20;;;;;;;27.40;14.20;;;;;;;-0.44;100.00;99816.38;271442;1266;25513;-90
2023/01/22 08:20:24;;;;;;;29.00;15.90;;;;;;;-0.46;100.00;99819.29;271308;1267;23154;-89
2023/01/22 08:26:26;;;;;;;30.80;15.60;;;;;;;-0.45;100.00;99816.59;273808;1266;22390;-91
2023/01/22 08:32:28;;;;;;;28.80;14.70;;;;;;;-0.40;100.00;99812.56;273518;1266;22442;-89
2023/01/22 08:38:30;;;;;;;30.10;15.30;;;;;;;-0.38;100.00;99820.30;270924;1266;22530;-90
2023/01/22 08:44:32;;;;;;;32.10;16.60;;;;;;;-0.36;100.00;99819.59;269453;1266;22624;-89
2023/01/22 08:50:34;;;;;;;34.60;17.60;;;;;;;-0.35;100.00;99814.79;269880;1271;23058;-87
2023/01/22 08:56:35;;;;;;;36.10;16.90;;;;;;;-0.34;100.00;99822.45;272926;1271;23188;-89
2023/01/22 09:02:37;;;;;;;31.40;16.10;;;;;;;-0.30;100.00;99832.39;270628;1272;37544;-89
2023/01/22 09:08:39;;;;;;;35.90;17.40;;;;;;;-0.27;100.00;99833.38;271483;1271;22424;-90
2023/01/22 09:14:41;;;;;;;35.50;18.30;;;;;;;-0.23;100.00;99838.50;269349;1272;25243;-91
2023/01/22 09:20:44;;;;;;;35.10;17.60;;;;;;;-0.22;100.00;99838.81;268225;1272;22395;-88
2023/01/22 09:26:45;;;;;;;34.80;17.20;;;;;;;-0.25;100.00;99842.19;268647;1272;24363;-88
2023/01/22 09:32:47;;;;;;;34.10;16.60;;;;;;;-0.27;100.00;99844.77;269225;1272;23265;-90
2023/01/22 09:38:49;;;;;;;32.00;16.90;;;;;;;-0.28;100.00;99840.41;269557;1272;22544;-90
2023/01/22 09:44:55;;;;;;;36.80;18.70;;;;;;;-0.25;100.00;99829.42;269268;1272;22559;-90
2023/01/22 09:50:58;;;;;;;35.40;19.30;;;;;;;-0.25;100.00;99816.73;272648;1271;22428;-90
2023/01/22 09:57:05;;;;;;;42.70;19.60;;;;;;;-0.22;100.00;99807.23;272997;1271;22399;-89
2023/01/22 10:03:31;;;;;;;32.40;15.90;;;;;;;-0.16;100.00;99819.48;270734;1272;22705;-89
2023/01/22 10:09:33;;;;;;;39.60;18.80;;;;;;;-0.11;100.00;99825.40;269656;1272;22526;-89
2023/01/22 10:15:35;;;;;;;37.00;17.70;;;;;;;-0.10;100.00;99829.87;270594;1272;23396;-90
2023/01/22 10:21:44;;;;;;;32.70;17.40;;;;;;;-0.10;100.00;99837.52;270572;1271;22526;-89
2023/01/22 10:27:56;;;;;;;38.60;19.70;;;;;;;-0.08;100.00;99835.76;269007;1271;22608;-89
2023/01/22 10:34:00;;;;;;;37.10;18.20;;;;;;;-0.05;100.00;99835.84;268653;1272;22589;-89
2023/01/22 10:40:02;;;;;;;35.80;17.00;;;;;;;-0.07;100.00;99839.02;269313;1272;22605;-89
2023/01/22 10:46:15;;;;;;;39.40;17.90;;;;;;;-0.12;100.00;99844.47;269047;1272;23452;-88
2023/01/22 10:52:35;;;;;;;39.00;18.30;;;;;;;-0.12;100.00;99843.77;269594;1272;25485;-89
2023/01/22 10:58:39;;;;;;;42.90;19.00;;;;;;;-0.06;100.00;99843.92;271928;1271;22395;-88
2023/01/22 11:04:41;;;;;;;45.00;19.30;;;;;;;0.02;100.00;99847.73;271032;1272;22536;-89
2023/01/22 11:10:58;;;;;;;42.60;18.60;;;;;;;-0.01;100.00;99840.38;269880;1272;22662;-89
2023/01/22 11:17:43;;;;;;;42.10;18.90;;;;;;;-0.02;100.00;99832.58;268757;1272;25386;-89
2023/01/22 11:23:52;;;;;;;48.90;21.30;;;;;;;-0.02;100.00;99827.36;270481;1272;23217;-88
2023/01/22 11:30:12;;;;;;;44.40;20.10;;;;;;;-0.04;100.00;99821.18;270868;1272;23205;-89
2023/01/22 11:36:29;;;;;;;50.90;22.40;;;;;;;-0.02;100.00;99823.69;272690;1272;22231;-88
2023/01/22 11:42:42;;;;;;;41.80;18.70;;;;;;;0.00;100.00;99827.44;268591;1272;22539;-89
2023/01/22 11:49:15;;;;;;;46.20;19.20;;;;;;;0.01;100.00;99830.02;270238;1272;23209;-89
2023/01/22 11:55:39;;;;;;;49.00;20.00;;;;;;;0.03;100.00;99840.73;269616;1272;23886;-89
2023/01/22 12:02:18;;;;;;;42.70;19.40;;;;;;;0.07;100.00;99836.42;268593;1259;22545;-89
2023/01/22 12:09:22;;;;;;;49.70;20.80;;;;;;;0.05;100.00;99847.38;269203;1272;23333;-87
2023/01/22 12:15:43;;;;;;;52.10;22.80;;;;;;;0.02;100.00;99848.11;268965;1272;22577;-90
2023/01/22 12:22:00;;;;;;;49.80;20.00;;;;;;;0.00;100.00;99858.51;271129;1272;22441;-88
2023/01/22 12:28:21;;;;;;;53.50;20.70;;;;;;;-0.02;100.00;99858.96;272800;1272;22502;-88
2023/01/22 12:34:59;;;;;;;45.10;18.60;;;;;;;-0.03;100.00;99855.69;272096;1272;22476;-88
2023/01/22 12:41:10;;;;;;;46.20;21.10;;;;;;;-0.01;100.00;99847.05;272828;1269;22410;-91
2023/01/22 12:47:18;;;;;;;42.90;19.70;;;;;;;0.04;100.00;99851.11;271154;1272;22557;-91
2023/01/22 12:53:33;;;;;;;46.70;20.40;;;;;;;0.05;100.00;99851.52;269756;1272;24125;-91
2023/01/22 12:59:35;;;;;;;54.00;21.10;;;;;;;0.06;100.00;99859.91;270028;1272;23152;-90
2023/01/22 13:05:39;;;;;;;55.70;22.40;;;;;;;0.06;100.00;99871.16;269923;1272;23250;-90
2023/01/22 13:11:41;;;;;;;49.80;19.60;;;;;;;0.06;100.00;99880.79;269119;1272;22475;-92
2023/01/22 13:18:32;;;;;;;;;;;;;;;;;;;;;
2023/01/22 13:24:51;;;;;;;;;;;;;;;0.08;100.00;99891.23;269758;1272;22544;-91
2023/01/22 13:31:09;;;;;;;59.60;26.10;;;;;;;0.09;100.00;99898.42;269775;1262;23427;-93
2023/01/22 13:37:48;;;;;;;52.50;21.10;;;;;;;0.12;100.00;99903.34;268441;1272;24308;-93
2023/01/22 13:43:57;;;;;;;61.10;24.80;;;;;;;0.13;100.00;99904.78;269456;1272;22363;-91
2023/01/22 13:50:01;;;;;;;48.40;21.30;;;;;;;0.17;100.00;99916.65;270136;1272;23696;-91
2023/01/22 13:56:04;;;;;;;51.70;21.10;;;;;;;0.21;100.00;99922.26;268702;1272;22281;-91
2023/01/22 14:02:30;;;;;;;60.60;23.40;;;;;;;0.28;100.00;99922.63;270322;1271;24258;-91
2023/01/22 14:08:43;;;;;;;53.30;23.70;;;;;;;0.36;100.00;99930.90;271238;1272;22489;-91
2023/01/22 14:14:46;;;;;;;58.20;24.60;;;;;;;0.35;100.00;99933.33;270410;1272;22297;-89
2023/01/22 14:20:48;;;;;;;63.60;28.20;;;;;;;0.30;100.00;99942.80;271982;1268;22373;-90
2023/01/22 14:26:50;;;;;;;49.90;21.00;;;;;;;0.27;100.00;99961.30;270253;1272;22573;-90
2023/01/22 14:32:57;;;;;;;46.50;20.70;;;;;;;0.27;100.00;99968.63;270939;1272;23684;-88
2023/01/22 14:38:59;;;;;;;41.70;20.50;;;;;;;0.25;100.00;99966.05;273041;1261;23026;-88
2023/01/22 14:45:00;;;;;;;51.60;21.60;;;;;;;0.23;100.00;99973.08;272963;1259;22403;-89
2023/01/22 14:51:07;;;;;;;49.30;21.80;;;;;;;0.22;100.00;99977.01;271641;1271;22269;-89
2023/01/22 14:57:09;;;;;;;47.00;22.30;;;;;;;0.24;100.00;99983.84;272758;1271;22383;-89
2023/01/22 15:03:10;;;;;;;72.40;27.80;;;;;;;0.26;100.00;99990.02;269659;1271;24265;-88
2023/01/22 15:09:15;;;;;;;77.60;32.00;;;;;;;0.23;100.00;99984.98;269354;1272;22580;-88
2023/01/22 15:15:25;;;;;;;69.10;27.60;;;;;;;0.19;100.00;99986.90;269395;1272;24222;-88
2023/01/22 15:21:26;;;;;;;67.50;26.00;;;;;;;0.19;100.00;99993.80;268614;1272;24291;-89
2023/01/22 15:27:28;;;;;;;108.40;37.80;;;;;;;0.17;100.00;99999.64;268138;1272;22607;-89
2023/01/22 15:33:30;;;;;;;74.10;29.00;;;;;;;0.16;100.00;100009.98;269071;1271;25367;-88
2023/01/22 15:39:31;;;;;;;74.80;29.80;;;;;;;0.16;100.00;100017.30;272536;1272;22689;-90
2023/01/22 15:45:33;;;;;;;65.10;25.80;;;;;;;0.16;100.00;100023.83;270208;1272;22655;-88
2023/01/22 15:51:36;;;;;;;72.60;24.90;;;;;;;0.18;100.00;100039.36;270971;1272;22608;-90
2023/01/22 15:57:41;;;;;;;72.60;28.70;;;;;;;0.18;100.00;100045.23;268931;1272;22747;-90
2023/01/22 16:03:43;;;;;;;87.60;35.80;;;;;;;0.16;100.00;100052.69;270693;1272;23705;-91
2023/01/22 16:09:47;;;;;;;62.80;25.00;;;;;;;0.15;100.00;100048.28;269851;1272;22575;-91
2023/01/22 16:16:05;;;;;;;73.50;28.70;;;;;;;0.15;100.00;100055.07;270470;1272;23252;-91
2023/01/22 16:22:09;;;;;;;70.20;30.80;;;;;;;0.14;100.00;100060.89;271258;1272;23439;-91
2023/01/22 16:28:11;;;;;;;68.30;30.90;;;;;;;0.15;100.00;100056.15;269886;1272;22555;-92
2023/01/22 16:34:24;;;;;;;59.80;28.00;;;;;;;0.16;100.00;100061.90;270074;1272;22554;-92
2023/01/22 16:40:30;;;;;;;64.50;27.40;;;;;;;0.17;100.00;100064.20;270441;1272;23440;-91
2023/01/22 16:46:37;;;;;;;64.20;27.80;;;;;;;0.16;100.00;100077.30;269985;1272;23282;-91
2023/01/22 16:52:59;;;;;;;76.00;27.90;;;;;;;0.14;100.00;100083.09;269734;1272;22537;-92
2023/01/22 16:59:36;;;;;;;68.50;27.30;;;;;;;0.15;100.00;100086.66;270049;1272;22660;-93
2023/01/22 17:06:40;;;;;;;58.80;25.80;;;;;;;0.12;100.00;100095.63;270191;1272;24271;-94
2023/01/22 17:13:16;;;;;;;60.80;25.90;;;;;;;0.12;100.00;100101.61;270108;1271;22569;-93
2023/01/22 17:19:40;;;;;;;86.20;31.80;;;;;;;0.10;100.00;100111.42;269662;1272;22548;-92
2023/01/22 17:25:42;;;;;;;91.80;34.10;;;;;;;0.12;100.00;100124.23;270169;1271;23048;-93
2023/01/22 17:31:45;;;;;;;76.50;31.00;;;;;;;0.14;100.00;100132.84;269969;1272;22546;-91
2023/01/22 17:37:48;;;;;;;86.30;31.30;;;;;;;0.14;100.00;100143.82;270290;1272;23157;-91
2023/01/22 17:43:51;;;;;;;89.40;31.00;;;;;;;0.15;100.00;100154.16;269379;1272;143560;-90
2023/01/22 17:49:54;;;;;;;83.50;33.10;;;;;;;0.13;100.00;100160.67;270099;1272;24872;-92
2023/01/22 17:56:10;;;;;;;73.70;28.40;;;;;;;0.12;100.00;100172.58;269021;1271;22678;-89
2023/01/22 18:02:14;;;;;;;68.30;29.30;;;;;;;0.09;100.00;100184.98;269199;1269;23209;-90
2023/01/22 18:08:17;;;;;;;72.70;30.50;;;;;;;0.02;100.00;100199.51;269745;1272;23495;-90
2023/01/22 18:14:24;;;;;;;87.10;33.20;;;;;;;0.04;100.00;100204.61;269779;1272;22522;-89
2023/01/22 18:20:26;;;;;;;93.10;35.30;;;;;;;0.08;100.00;100203.40;272942;1272;22935;-88
2023/01/22 18:26:29;;;;;;;87.50;34.60;;;;;;;0.09;100.00;100210.14;271850;1271;23182;-88
2023/01/22 18:32:34;;;;;;;106.20;43.00;;;;;;;0.09;100.00;100212.45;272699;1269;23146;-89
2023/01/22 18:38:37;;;;;;;101.50;45.10;;;;;;;0.11;100.00;100211.05;270175;1271;22562;-89
2023/01/22 18:44:40;;;;;;;92.30;40.80;;;;;;;0.14;100.00;100212.48;271317;1272;22301;-89
2023/01/22 18:50:42;;;;;;;108.10;46.50;;;;;;;0.17;100.00;100213.21;270947;1272;22449;-89
2023/01/22 18:56:45;;;;;;;103.00;44.30;;;;;;;0.15;100.00;100212.36;272008;1272;24250;-88
2023/01/22 19:02:55;;;;;;;101.00;43.90;;;;;;;0.13;100.00;100214.37;272699;1268;22431;-88
2023/01/22 19:09:01;;;;;;;98.50;42.90;;;;;;;0.11;100.00;100212.28;271399;1271;25287;-88
2023/01/22 19:15:04;;;;;;;96.00;44.20;;;;;;;0.10;100.00;100214.33;272728;1272;22431;-88
2023/01/22 19:21:09;;;;;;;81.20;36.20;;;;;;;0.09;100.00;100218.64;273007;1272;22420;-88
2023/01/22 19:27:11;;;;;;;92.10;38.80;;;;;;;0.09;100.00;100228.98;272978;1270;22505;-88
2023/01/22 19:33:13;;;;;;;73.90;33.80;;;;;;;0.12;100.00;100239.09;273017;1271;23196;-88
2023/01/22 19:39:15;;;;;;;87.10;39.10;;;;;;;0.15;100.00;100239.56;272684;1269;24291;-88
2023/01/22 19:45:16;;;;;;;84.80;37.80;;;;;;;0.16;100.00;100242.25;272248;1270;22400;-87
2023/01/22 19:51:20;;;;;;;90.10;38.30;;;;;;;0.18;100.00;100253.00;272794;1270;22417;-87
2023/01/22 19:57:23;;;;;;;86.00;41.00;;;;;;;0.19;100.00;100267.71;272949;1270;22197;-87
2023/01/22 20:03:25;;;;;;;77.70;37.30;;;;;;;0.20;100.00;100262.10;271715;1270;22229;-86
2023/01/22 20:09:28;;;;;;;82.40;39.30;;;;;;;0.21;100.00;100259.30;271580;1262;22486;-87
2023/01/22 20:15:38;;;;;;;88.00;42.10;;;;;;;0.22;100.00;100260.31;272636;1272;22410;-86
2023/01/22 20:21:40;;;;;;;153.00;71.10;;;;;;;0.23;100.00;100265.33;273058;1259;22399;-87
2023/01/22 20:27:42;;;;;;;166.20;76.10;;;;;;;0.24;100.00;100285.52;272796;1272;22378;-88
2023/01/22 20:33:43;;;;;;;74.00;34.70;;;;;;;0.26;100.00;100301.23;272842;1270;22186;-87
2023/01/22 20:39:45;;;;;;;54.40;28.80;;;;;;;0.28;100.00;100296.02;272723;1260;23319;-88
2023/01/22 20:46:02;;;;;;;67.20;35.00;;;;;;;0.27;100.00;100287.00;272798;1272;22480;-88
2023/01/22 20:52:04;;;;;;;;;;;;;;;0.22;100.00;100292.69;272819;1272;22473;-88
2023/01/22 20:58:06;;;;;;;95.60;46.50;;;;;;;0.22;100.00;100296.03;272980;1273;22515;-87
2023/01/22 21:04:08;;;;;;;84.10;41.20;;;;;;;0.22;100.00;100293.50;272834;1269;22429;-88
2023/01/22 21:10:10;;;;;;;57.30;29.40;;;;;;;0.23;100.00;100307.34;272983;1269;22197;-88
2023/01/22 21:16:18;;;;;;;55.70;26.40;;;;;;;0.24;100.00;100306.67;272875;1272;23026;-88
2023/01/22 21:22:19;;;;;;;52.40;27.50;;;;;;;0.24;100.00;100303.13;272974;1265;22455;-87
2023/01/22 21:28:21;;;;;;;59.10;29.40;;;;;;;0.23;100.00;100311.10;272836;1272;22493;-87
2023/01/22 21:34:24;;;;;;;62.20;28.30;;;;;;;0.25;100.00;100324.77;272962;1272;22404;-87
2023/01/22 21:40:26;;;;;;;63.90;32.70;;;;;;;0.24;100.00;100320.73;272241;1272;23463;-87
2023/01/22 21:46:32;;;;;;;54.10;27.20;;;;;;;0.20;100.00;100335.63;272847;1272;22271;-87
2023/01/22 21:52:34;;;;;;;290.40;130.50;;;;;;;0.21;100.00;100344.13;272842;1271;23387;-87
2023/01/22 21:58:38;;;;;;;73.40;35.90;;;;;;;0.20;100.00;100353.45;272822;1271;22207;-87
2023/01/22 22:04:40;;;;;;;98.80;44.10;;;;;;;0.20;100.00;100348.54;272948;1260;22393;-87
2023/01/22 22:10:48;;;;;;;211.90;98.60;;;;;;;0.15;100.00;100362.50;270239;1272;22594;-86
2023/01/22 22:16:50;;;;;;;227.20;87.20;;;;;;;0.14;100.00;100356.27;269465;1271;24247;-87
2023/01/22 22:22:52;;;;;;;146.20;52.80;;;;;;;0.16;100.00;100356.38;272218;1272;22202;-87
2023/01/22 22:28:54;;;;;;;299.00;117.00;;;;;;;0.18;100.00;100359.23;271969;1272;22372;-88
2023/01/22 22:34:56;;;;;;;263.20;100.90;;;;;;;0.20;100.00;100365.52;269251;1272;22404;-88
2023/01/22 22:40:58;;;;;;;93.70;39.70;;;;;;;0.19;100.00;100358.73;269295;1273;22619;-85
2023/01/22 22:47:00;;;;;;;85.40;38.10;;;;;;;0.15;100.00;100363.96;269041;1272;22645;-87
2023/01/22 22:53:02;;;;;;;94.00;44.60;;;;;;;0.12;100.00;100384.55;272898;1260;22416;-87
2023/01/22 22:59:04;;;;;;;84.70;37.70;;;;;;;0.14;100.00;100382.65;270073;1272;24247;-87
2023/01/22 23:05:06;;;;;;;63.60;30.10;;;;;;;0.13;100.00;100369.46;272340;1272;22868;-87
2023/01/22 23:11:10;;;;;;;60.40;25.50;;;;;;;0.12;100.00;100371.94;273049;1271;23287;-88
2023/01/22 23:17:14;;;;;;;51.80;24.00;;;;;;;0.13;100.00;100380.51;271680;1272;23245;-86
2023/01/22 23:23:16;;;;;;;187.80;87.30;;;;;;;0.13;100.00;100393.44;269992;1271;22505;-87
2023/01/22 23:29:21;;;;;;;80.20;36.70;;;;;;;0.13;100.00;100399.73;270859;1272;22216;-86
2023/01/22 23:35:55;;;;;;;66.30;29.60;;;;;;;0.17;100.00;100413.55;270242;1270;22556;-86
2023/01/22 23:41:57;;;;;;;60.10;27.70;;;;;;;0.19;100.00;100412.15;269598;1272;25382;-87
2023/01/22 23:48:02;;;;;;;60.80;26.20;;;;;;;0.18;100.00;100408.23;269057;1263;22546;-86
2023/01/22 23:54:03;;;;;;;57.90;25.20;;;;;;;0.19;100.00;100418.63;268911;1272;24319;-86
